Time;durP1;ratioP1;P1;durP2;ratioP2;P2;SDS_P1;SDS_P2;PMS_P1;PMS_P2;Temp;Humidity;BMP_temperature;BMP_pressure;BME280_temperature;BME280_humidity;BME280_pressure;Samples;Min_cycle;Max_cycle;Signal;HPM_P1;HPM_P2
2022/12/05 00:01:37;;;;;;;;;;;;;;;;;;5064406;28;19912;-87
2022/12/05 00:04:03;;;;;;;;;;;;;;;;;;5058789;28;19912;-87
2022/12/05 00:06:29;;;;;;;;;;;;;;;;;;5075304;28;19915;-86
2022/12/05 00:08:55;;;;;;;;;;;;;;;;;;5060358;28;20309;-87
2022/12/05 00:11:21;;;;;;;;;;;;;;;;;;5065160;28;19912;-87
2022/12/05 00:13:46;;;;;;;;;;;;;;;;;;5062339;28;19913;-86
2022/12/05 00:16:12;;;;;;;;;;;;;;;;;;5063799;28;19909;-86
2022/12/05 00:18:38;;;;;;;;;;;;;;;;;;5068403;28;20508;-86
2022/12/05 00:21:04;;;;;;;;;;;;;;;;;;5066683;28;19908;-85
2022/12/05 00:23:30;;;;;;;;;;;;;;;;;;5061105;28;19912;-86
2022/12/05 00:25:59;;;;;;;;;;;;;;;;;;5061253;28;20007;-86
2022/12/05 00:28:24;;;;;;;;;;;;;;;;;;5060032;28;19912;-87
2022/12/05 00:30:50;;;;;;;;;;;;;;;;;;5062852;28;19912;-86
2022/12/05 00:33:16;;;;;;;;;;;;;;;;;;5063298;28;19916;-86
2022/12/05 00:35:42;;;;;;;;;;;;;;;;;;5064454;28;20367;-88
2022/12/05 00:38:08;;;;;;;;;;;;;;;;;;5067969;28;20420;-86
2022/12/05 00:40:34;;;;;;;;;;;;;;;;;;5068876;28;19939;-87
2022/12/05 00:42:59;;;;;;;;;;;;;;;;;;5062373;28;19920;-87
2022/12/05 00:45:25;;;;;;;;;;;;;;;;;;5059283;28;19912;-88
2022/12/05 00:47:51;;;;;;;;;;;;;;;;;;5064945;28;20011;-87
2022/12/05 00:50:17;;;;;;;;;;;;;;;;;;5070467;28;19925;-86
2022/12/05 00:52:43;;;;;;;;;;;;;;;;;;5063113;28;19912;-87
2022/12/05 00:55:09;;;;;;;;;;;;;;;;;;5064605;28;19908;-88
2022/12/05 00:57:36;;;;;;;;;;;;;;;;;;5062737;28;19920;-86
2022/12/05 01:00:02;;;;;;;;;;;;;;;;;;5065103;28;19908;-87
2022/12/05 01:02:28;;;;;;;;;;;;;;;;;;5065606;28;19919;-87
2022/12/05 01:04:53;;;;;;;;;;;;;;;;;;5067515;28;20294;-86
2022/12/05 01:07:19;;;;;;;;;;;;;;;;;;5058851;28;19969;-87
2022/12/05 01:09:45;;;;;;;;;;;;;;;;;;5067134;28;19975;-87
2022/12/05 01:12:11;;;;;;;;;;;;;;;;;;5065202;28;19909;-87
2022/12/05 01:14:37;;;;;;;;;;;;;;;;;;5057926;28;19915;-87
2022/12/05 01:17:03;;;;;;;;;;;;;;;;;;5062319;28;19908;-88
2022/12/05 01:19:28;;;;;;;;;;;;;;;;;;5061533;28;20405;-87
2022/12/05 01:21:54;;;;;;;;;;;;;;;;;;5068350;28;19913;-87
2022/12/05 01:24:20;;;;;;;;;;;;;;;;;;5069341;28;20010;-87
2022/12/05 01:26:46;;;;;;;;;;;;;;;;;;5062038;28;19908;-87
2022/12/05 01:29:12;;;;;;;;;;;;;;;;;;5067230;28;19934;-86
2022/12/05 01:31:38;;;;;;;;;;;;;;;;;;5059656;28;19909;-87
2022/12/05 01:34:04;;;;;;;;;;;;;;;;;;5061436;28;20027;-86
2022/12/05 01:36:32;;;;;;;;;;;;;;;;;;5067552;28;19908;-86
2022/12/05 01:38:58;;;;;;;;;;;;;;;;;;5066152;28;19952;-86
2022/12/05 01:41:27;;;;;;;;;;;;;;;;;;5061765;28;19955;-87
2022/12/05 01:43:53;;;;;;;;;;;;;;;;;;5063597;28;19916;-87
2022/12/05 01:46:19;;;;;;;;;;;;;;;;;;5064547;28;20267;-88
2022/12/05 01:48:44;;;;;;;;;;;;;;;;;;5062688;28;19948;-86
2022/12/05 01:51:10;;;;;;;;;;;;;;;;;;5055410;28;19920;-86
2022/12/05 01:53:36;;;;;;;;;;;;;;;;;;5067249;28;19908;-86
2022/12/05 01:56:02;;;;;;;;;;;;;;;;;;5067961;28;19908;-87
2022/12/05 01:58:28;;;;;;;;;;;;;;;;;;5062582;28;19930;-87
2022/12/05 02:00:54;;;;;;;;;;;;;;;;;;5060183;28;20371;-87
2022/12/05 02:03:20;;;;;;;;;;;;;;;;;;5064016;28;19965;-87
2022/12/05 02:05:46;;;;;;;;;;;;;;;;;;5058748;28;20547;-86
2022/12/05 02:08:11;;;;;;;;;;;;;;;;;;5064141;28;19946;-86
2022/12/05 02:10:37;;;;;;;;;;;;;;;;;;5056806;28;19919;-87
2022/12/05 02:13:03;;;;;;;;;;;;;;;;;;5065685;28;19908;-87
2022/12/05 02:15:29;;;;;;;;;;;;;;;;;;5063603;28;19994;-87
2022/12/05 02:17:55;;;;;;;;;;;;;;;;;;5066499;28;19912;-87
2022/12/05 02:20:21;;;;;;;;;;;;;;;;;;5062997;28;19915;-86
2022/12/05 02:22:47;;;;;;;;;;;;;;;;;;5063695;28;20362;-86
2022/12/05 02:25:12;;;;;;;;;;;;;;;;;;5062709;28;19950;-87
2022/12/05 02:27:38;;;;;;;;;;;;;;;;;;5059037;28;20078;-87
2022/12/05 02:30:04;;;;;;;;;;;;;;;;;;5055291;28;19915;-87
2022/12/05 02:32:30;;;;;;;;;;;;;;;;;;5061674;28;19909;-87
2022/12/05 02:34:56;;;;;;;;;;;;;;;;;;5064479;28;19915;-86
2022/12/05 02:37:22;;;;;;;;;;;;;;;;;;5066814;28;19909;-86
2022/12/05 02:39:47;;;;;;;;;;;;;;;;;;5061353;28;19978;-88
2022/12/05 02:42:13;;;;;;;;;;;;;;;;;;5067414;28;19908;-86
2022/12/05 02:44:39;;;;;;;;;;;;;;;;;;5068966;28;19916;-86
2022/12/05 02:47:05;;;;;;;;;;;;;;;;;;5064800;28;20379;-85
2022/12/05 02:49:31;;;;;;;;;;;;;;;;;;5065727;28;20371;-86
2022/12/05 02:51:57;;;;;;;;;;;;;;;;;;5061833;28;19962;-87
2022/12/05 02:54:23;;;;;;;;;;;;;;;;;;5066167;28;19909;-84
2022/12/05 02:56:48;;;;;;;;;;;;;;;;;;5063448;28;19912;-85
2022/12/05 02:59:15;;;;;;;;;;;;;;;;;;5058915;28;20414;-88
2022/12/05 03:01:40;;;;;;;;;;;;;;;;;;5062322;28;19908;-86
2022/12/05 03:04:06;;;;;;;;;;;;;;;;;;5068235;28;19958;-87
2022/12/05 03:06:32;;;;;;;;;;;;;;;;;;5060301;28;19909;-86
2022/12/05 03:08:58;;;;;;;;;;;;;;;;;;5066861;28;19974;-86
2022/12/05 03:11:24;;;;;;;;;;;;;;;;;;5062125;28;19953;-86
2022/12/05 03:13:50;;;;;;;;;;;;;;;;;;5067468;28;19909;-85
2022/12/05 03:16:16;;;;;;;;;;;;;;;;;;5056696;28;20483;-86
2022/12/05 03:18:41;;;;;;;;;;;;;;;;;;5063577;28;20226;-86
2022/12/05 03:21:07;;;;;;;;;;;;;;;;;;5066396;28;19920;-85
2022/12/05 03:23:33;;;;;;;;;;;;;;;;;;5068612;28;19909;-86
2022/12/05 03:25:59;;;;;;;;;;;;;;;;;;5061405;28;19935;-85
2022/12/05 03:28:25;;;;;;;;;;;;;;;;;;5060578;28;19927;-85
2022/12/05 03:30:51;;;;;;;;;;;;;;;;;;5058651;28;19921;-84
2022/12/05 03:33:17;;;;;;;;;;;;;;;;;;5061622;28;19911;-84
2022/12/05 03:35:43;;;;;;;;;;;;;;;;;;5067297;28;19908;-85
2022/12/05 03:38:09;;;;;;;;;;;;;;;;;;5064010;28;20283;-85
2022/12/05 03:40:34;;;;;;;;;;;;;;;;;;5062990;28;19919;-84
2022/12/05 03:43:01;;;;;;;;;;;;;;;;;;5062839;28;19912;-82
2022/12/05 03:45:30;;;;;;;;;;;;;;;;;;5067461;28;19955;-84
2022/12/05 03:47:56;;;;;;;;;;;;;;;;;;5060435;28;20760;-83
2022/12/05 03:50:22;;;;;;;;;;;;;;;;;;5052608;28;19956;-83
2022/12/05 03:52:48;;;;;;;;;;;;;;;;;;5060743;28;20263;-83
2022/12/05 03:55:14;;;;;;;;;;;;;;;;;;5062323;28;19904;-84
2022/12/05 03:57:42;;;;;;;;;;;;;;;;;;5064684;28;19908;-82
2022/12/05 04:00:08;;;;;;;;;;;;;;;;;;5056123;28;19916;-83
2022/12/05 04:02:34;;;;;;;;;;;;;;;;;;5058448;28;20007;-84
2022/12/05 04:05:00;;;;;;;;;;;;;;;;;;5064728;28;20035;-83
2022/12/05 04:07:26;;;;;;;;;;;;;;;;;;5063387;28;20355;-84
2022/12/05 04:09:52;;;;;;;;;;;;;;;;;;5065328;28;19912;-83
2022/12/05 04:12:18;;;;;;;;;;;;;;;;;;5065795;28;19904;-84
2022/12/05 04:14:43;;;;;;;;;;;;;;;;;;5064904;28;19909;-83
2022/12/05 04:17:09;;;;;;;;;;;;;;;;;;5062044;28;19977;-83
2022/12/05 04:22:20;;;;;;;;;;;;;;;;;;5053555;28;19916;-83
2022/12/05 04:27:30;;;;;;;;;;;;;;;;;;5069493;28;20317;-82
2022/12/05 04:29:56;;;;;;;;;;;;;;;;;;5066746;28;19909;-83
2022/12/05 04:32:22;;;;;;;;;;;;;;;;;;5065217;28;19909;-83
2022/12/05 04:34:48;;;;;;;;;;;;;;;;;;5064110;28;19919;-83
2022/12/05 04:37:14;;;;;;;;;;;;;;;;;;5062740;28;19911;-83
2022/12/05 04:39:40;;;;;;;;;;;;;;;;;;5064107;28;20391;-84
2022/12/05 04:42:05;;;;;;;;;;;;;;;;;;5060903;28;20004;-82
2022/12/05 04:44:31;;;;;;;;;;;;;;;;;;5067065;28;19934;-83
2022/12/05 04:46:57;;;;;;;;;;;;;;;;;;5070358;28;19943;-82
2022/12/05 04:49:23;;;;;;;;;;;;;;;;;;5069687;28;19931;-83
2022/12/05 04:51:49;;;;;;;;;;;;;;;;;;5066192;28;19920;-83
2022/12/05 04:54:15;;;;;;;;;;;;;;;;;;5066951;28;20262;-83
2022/12/05 04:56:41;;;;;;;;;;;;;;;;;;5068283;28;19908;-82
2022/12/05 04:59:06;;;;;;;;;;;;;;;;;;5068369;28;19909;-83
2022/12/05 05:01:32;;;;;;;;;;;;;;;;;;5061527;28;19936;-83
2022/12/05 05:03:58;;;;;;;;;;;;;;;;;;5063338;28;19912;-83
2022/12/05 05:06:27;;;;;;;;;;;;;;;;;;5063821;28;20345;-82
2022/12/05 05:08:53;;;;;;;;;;;;;;;;;;5066984;28;19999;-81
2022/12/05 05:11:19;;;;;;;;;;;;;;;;;;5065348;28;19999;-82
2022/12/05 05:13:45;;;;;;;;;;;;;;;;;;5060425;28;19908;-82
2022/12/05 05:16:10;;;;;;;;;;;;;;;;;;5063233;28;19909;-82
2022/12/05 05:18:36;;;;;;;;;;;;;;;;;;5065020;28;19917;-82
2022/12/05 05:21:02;;;;;;;;;;;;;;;;;;5062012;28;19916;-81
2022/12/05 05:23:28;;;;;;;;;;;;;;;;;;5057214;28;19912;-84
2022/12/05 05:25:54;;;;;;;;;;;;;;;;;;5067527;28;19946;-83
2022/12/05 05:28:20;;;;;;;;;;;;;;;;;;5065999;28;20362;-83
2022/12/05 05:30:46;;;;;;;;;;;;;;;;;;5068461;28;20431;-82
2022/12/05 05:33:11;;;;;;;;;;;;;;;;;;5063577;28;19917;-82
2022/12/05 05:35:37;;;;;;;;;;;;;;;;;;5064000;28;19912;-83
2022/12/05 05:38:03;;;;;;;;;;;;;;;;;;5060669;28;19994;-84
2022/12/05 05:40:29;;;;;;;;;;;;;;;;;;5066347;28;19915;-83
2022/12/05 05:42:55;;;;;;;;;;;;;;;;;;5069859;28;19916;-83
2022/12/05 05:45:21;;;;;;;;;;;;;;;;;;5066791;28;19919;-83
2022/12/05 05:47:47;;;;;;;;;;;;;;;;;;5067187;28;19908;-83
2022/12/05 05:50:13;;;;;;;;;;;;;;;;;;5061247;28;19969;-83
2022/12/05 05:52:38;;;;;;;;;;;;;;;;;;5066060;28;19916;-83
2022/12/05 05:55:04;;;;;;;;;;;;;;;;;;5066273;28;20259;-80
2022/12/05 05:57:30;;;;;;;;;;;;;;;;;;5065016;28;20448;-81
2022/12/05 05:59:56;;;;;;;;;;;;;;;;;;5061942;28;20283;-82
2022/12/05 06:02:22;;;;;;;;;;;;;;;;;;5055086;28;19913;-83
2022/12/05 06:04:48;;;;;;;;;;;;;;;;;;5062281;28;19912;-84
2022/12/05 06:07:13;;;;;;;;;;;;;;;;;;5058989;28;19908;-84
2022/12/05 06:09:39;;;;;;;;;;;;;;;;;;5056453;28;20587;-83
2022/12/05 06:12:05;;;;;;;;;;;;;;;;;;5065881;28;19919;-84
2022/12/05 06:14:31;;;;;;;;;;;;;;;;;;5066522;28;19908;-84
2022/12/05 06:16:57;;;;;;;;;;;;;;;;;;5055693;28;19957;-83
2022/12/05 06:19:23;;;;;;;;;;;;;;;;;;5060060;28;19908;-84
2022/12/05 06:21:49;;;;;;;;;;;;;;;;;;5057718;28;19922;-84
2022/12/05 06:24:15;;;;;;;;;;;;;;;;;;5063028;28;19916;-84
2022/12/05 06:26:40;;;;;;;;;;;;;;;;;;5064484;28;19943;-84
2022/12/05 06:29:06;;;;;;;;;;;;;;;;;;5063151;28;20035;-84
2022/12/05 06:31:32;;;;;;;;;;;;;;;;;;5060644;28;19978;-84
2022/12/05 06:33:58;;;;;;;;;;;;;;;;;;5056002;28;20003;-83
2022/12/05 06:36:25;;;;;;;;;;;;;;;;;;5067629;28;20430;-84
2022/12/05 06:38:51;;;;;;;;;;;;;;;;;;5064624;28;19908;-84
2022/12/05 06:41:17;;;;;;;;;;;;;;;;;;5065103;28;20632;-84
2022/12/05 06:43:43;;;;;;;;;;;;;;;;;;5063237;28;19916;-84
2022/12/05 06:46:08;;;;;;;;;;;;;;;;;;5066070;28;19909;-84
2022/12/05 06:48:34;;;;;;;;;;;;;;;;;;5067315;28;19912;-84
2022/12/05 06:51:00;;;;;;;;;;;;;;;;;;5065838;28;20409;-83
2022/12/05 06:53:26;;;;;;;;;;;;;;;;;;5067754;28;19916;-83
2022/12/05 06:55:52;;;;;;;;;;;;;;;;;;5064637;28;19908;-84
2022/12/05 06:58:18;;;;;;;;;;;;;;;;;;5061306;28;19930;-85
2022/12/05 07:03:29;;;;;;;;;;;;;;;;;;5056622;28;20417;-84
2022/12/05 07:05:55;;;;;;;;;;;;;;;;;;5062602;28;19912;-85
2022/12/05 07:08:20;;;;;;;;;;;;;;;;;;5067182;28;19991;-84
2022/12/05 07:10:46;;;;;;;;;;;;;;;;;;5064902;28;19966;-83
2022/12/05 07:13:12;;;;;;;;;;;;;;;;;;5059166;28;19909;-84
2022/12/05 07:15:38;;;;;;;;;;;;;;;;;;5064775;28;20678;-82
2022/12/05 07:18:04;;;;;;;;;;;;;;;;;;5066839;28;20267;-83
2022/12/05 07:20:30;;;;;;;;;;;;;;;;;;5062659;28;19919;-83
2022/12/05 07:22:55;;;;;;;;;;;;;;;;;;5067349;28;19924;-83
2022/12/05 07:25:22;;;;;;;;;;;;;;;;;;5062131;28;19916;-83
2022/12/05 07:27:48;;;;;;;;;;;;;;;;;;5053889;28;19948;-84
2022/12/05 07:30:13;;;;;;;;;;;;;;;;;;5063780;28;19943;-84
2022/12/05 07:32:39;;;;;;;;;;;;;;;;;;5066606;28;19909;-84
2022/12/05 07:35:05;;;;;;;;;;;;;;;;;;5065010;28;19912;-84
2022/12/05 07:37:31;;;;;;;;;;;;;;;;;;5064778;28;19948;-84
2022/12/05 07:39:57;;;;;;;;;;;;;;;;;;5056620;28;19919;-84
2022/12/05 07:42:23;;;;;;;;;;;;;;;;;;5066699;28;19912;-75
2022/12/05 07:44:48;;;;;;;;;;;;;;;;;;5062645;28;20002;-76
2022/12/05 07:47:14;;;;;;;;;;;;;;;;;;5061016;28;20256;-76
2022/12/05 07:49:46;;;;;;;;;;;;;;;;;;5067564;28;20364;-76
2022/12/05 07:52:12;;;;;;;;;;;;;;;;;;5064553;28;20374;-77
2022/12/05 07:54:38;;;;;;;;;;;;;;;;;;5065149;28;19915;-76
2022/12/05 07:57:04;;;;;;;;;;;;;;;;;;5067395;28;19909;-76
2022/12/05 07:59:30;;;;;;;;;;;;;;;;;;5060974;28;19916;-75
2022/12/05 08:01:56;;;;;;;;;;;;;;;;;;5067858;28;19908;-75
2022/12/05 08:04:22;;;;;;;;;;;;;;;;;;5065817;28;19912;-75
2022/12/05 08:06:48;;;;;;;;;;;;;;;;;;5064375;28;19923;-75
2022/12/05 08:09:14;;;;;;;;;;;;;;;;;;5065136;28;19908;-75
2022/12/05 08:11:39;;;;;;;;;;;;;;;;;;5066914;28;19912;-74
2022/12/05 08:14:05;;;;;;;;;;;;;;;;;;5066896;28;19916;-74
2022/12/05 08:16:31;;;;;;;;;;;;;;;;;;5065023;28;19915;-81
2022/12/05 08:18:57;;;;;;;;;;;;;;;;;;5069283;28;20452;-75
2022/12/05 08:21:24;;;;;;;;;;;;;;;;;;5064352;28;19912;-73
2022/12/05 08:23:49;;;;;;;;;;;;;;;;;;5066170;28;19912;-75
2022/12/05 08:26:15;;;;;;;;;;;;;;;;;;5070280;28;19938;-76
2022/12/05 08:28:41;;;;;;;;;;;;;;;;;;5066762;28;19948;-75
2022/12/05 08:31:07;;;;;;;;;;;;;;;;;;5068984;28;19995;-76
2022/12/05 08:33:33;;;;;;;;;;;;;;;;;;5069619;28;19912;-77
2022/12/05 08:35:59;;;;;;;;;;;;;;;;;;5067786;28;19961;-74
2022/12/05 08:38:25;;;;;;;;;;;;;;;;;;5065159;28;19948;-76
2022/12/05 08:40:50;;;;;;;;;;;;;;;;;;5069980;28;20370;-77
2022/12/05 08:43:16;;;;;;;;;;;;;;;;;;5068299;28;20320;-74
2022/12/05 08:45:42;;;;;;;;;;;;;;;;;;5070141;28;20083;-75
2022/12/05 08:48:08;;;;;;;;;;;;;;;;;;5063896;28;19912;-76
2022/12/05 08:50:34;;;;;;;;;;;;;;;;;;5068249;28;19917;-77
2022/12/05 08:53:00;;;;;;;;;;;;;;;;;;5068299;28;19916;-77
2022/12/05 08:55:25;;;;;;;;;;;;;;;;;;5068560;28;20445;-77
2022/12/05 08:57:51;;;;;;;;;;;;;;;;;;5068411;28;19940;-77
2022/12/05 09:00:17;;;;;;;;;;;;;;;;;;5067157;28;19912;-77
2022/12/05 09:02:43;;;;;;;;;;;;;;;;;;5064392;28;19912;-77
2022/12/05 09:05:09;;;;;;;;;;;;;;;;;;5070555;28;20014;-77
2022/12/05 09:07:35;;;;;;;;;;;;;;;;;;5069257;28;19915;-77
2022/12/05 09:10:00;;;;;;;;;;;;;;;;;;5064909;28;19913;-77
2022/12/05 09:12:26;;;;;;;;;;;;;;;;;;5060444;28;19943;-77
2022/12/05 09:14:52;;;;;;;;;;;;;;;;;;5058683;28;20279;-77
2022/12/05 09:17:18;;;;;;;;;;;;;;;;;;5061430;28;19970;-78
2022/12/05 09:19:44;;;;;;;;;;;;;;;;;;5071051;28;20638;-76
2022/12/05 09:22:10;;;;;;;;;;;;;;;;;;5075126;28;20006;-76
2022/12/05 09:24:36;;;;;;;;;;;;;;;;;;5062394;28;19916;-74
2022/12/05 09:27:01;;;;;;;;;;;;;;;;;;5062407;28;19919;-76
2022/12/05 09:29:30;;;;;;;;;;;;;;;;;;5051576;28;19916;-76
2022/12/05 09:31:56;;;;;;;;;;;;;;;;;;5053147;28;19913;-76
2022/12/05 09:34:31;;;;;;;;;;;;;;;;;;5054377;28;19909;-76
2022/12/05 09:36:57;;;;;;;;;;;;;;;;;;5065949;28;19912;-76
2022/12/05 09:39:23;;;;;;;;;;;;;;;;;;5062265;28;20555;-76
2022/12/05 09:42:04;;;;;;;;;;;;;;;;;;5060664;28;19970;-76
2022/12/05 09:44:30;;;;;;;;;;;;;;;;;;5070504;28;19934;-77
2022/12/05 09:46:55;;;;;;;;;;;;;;;;;;5063272;28;19916;-82
2022/12/05 09:49:21;;;;;;;;;;;;;;;;;;5068454;28;19939;-76
2022/12/05 09:51:47;;;;;;;;;;;;;;;;;;5064128;28;19916;-76
2022/12/05 09:54:13;;;;;;;;;;;;;;;;;;5060645;28;20300;-76
2022/12/05 09:56:39;;;;;;;;;;;;;;;;;;5061234;28;19908;-76
2022/12/05 09:59:05;;;;;;;;;;;;;;;;;;5062642;28;19908;-76
2022/12/05 10:01:31;;;;;;;;;;;;;;;;;;5057945;28;19909;-76
2022/12/05 10:03:57;;;;;;;;;;;;;;;;;;5064826;28;19919;-76
2022/12/05 10:06:23;;;;;;;;;;;;;;;;;;5067146;28;19931;-76
2022/12/05 10:08:49;;;;;;;;;;;;;;;;;;5065626;28;19909;-76
2022/12/05 10:11:14;;;;;;;;;;;;;;;;;;5061455;28;20022;-77
2022/12/05 10:13:40;;;;;;;;;;;;;;;;;;5062537;28;19931;-76
2022/12/05 10:16:06;;;;;;;;;;;;;;;;;;5061775;28;19920;-76
2022/12/05 10:18:32;;;;;;;;;;;;;;;;;;5065119;28;19952;-76
2022/12/05 10:20:58;;;;;;;;;;;;;;;;;;5056387;28;19962;-76
2022/12/05 10:23:24;;;;;;;;;;;;;;;;;;5063426;28;20255;-76
2022/12/05 10:25:49;;;;;;;;;;;;;;;;;;5054738;28;19967;-76
2022/12/05 10:28:15;;;;;;;;;;;;;;;;;;5064672;28;19954;-82
2022/12/05 10:30:41;;;;;;;;;;;;;;;;;;5065133;28;19905;-78
2022/12/05 10:33:07;;;;;;;;;;;;;;;;;;5061918;28;19909;-77
2022/12/05 10:35:33;;;;;;;;;;;;;;;;;;5066326;28;19959;-76
2022/12/05 10:37:59;;;;;;;;;;;;;;;;;;5065569;28;19909;-77
2022/12/05 10:40:25;;;;;;;;;;;;;;;;;;5056426;28;20936;-76
2022/12/05 10:42:50;;;;;;;;;;;;;;;;;;5050818;28;19958;-76
2022/12/05 10:45:16;;;;;;;;;;;;;;;;;;5045964;28;19913;-78
2022/12/05 10:47:42;;;;;;;;;;;;;;;;;;5053417;28;19919;-78
2022/12/05 10:50:08;;;;;;;;;;;;;;;;;;5062189;28;19932;-78
2022/12/05 10:52:34;;;;;;;;;;;;;;;;;;5060366;28;20416;-78
2022/12/05 10:55:00;;;;;;;;;;;;;;;;;;5061947;28;20335;-76
2022/12/05 11:00:17;;;;;;;;;;;;;;;;;;5063889;28;19999;-76
2022/12/05 11:02:43;;;;;;;;;;;;;;;;;;5062456;28;20548;-76
2022/12/05 11:05:10;;;;;;;;;;;;;;;;;;5063203;28;20003;-75
2022/12/05 11:07:35;;;;;;;;;;;;;;;;;;5063360;28;20402;-76
2022/12/05 11:10:01;;;;;;;;;;;;;;;;;;5065026;28;20287;-76
2022/12/05 11:12:27;;;;;;;;;;;;;;;;;;5066443;28;20056;-75
2022/12/05 11:14:53;;;;;;;;;;;;;;;;;;5065867;28;19963;-75
2022/12/05 11:17:19;;;;;;;;;;;;;;;;;;5064265;28;20358;-76
2022/12/05 11:19:45;;;;;;;;;;;;;;;;;;5062605;28;20351;-75
2022/12/05 11:22:10;;;;;;;;;;;;;;;;;;5064184;28;19908;-77
2022/12/05 11:24:36;;;;;;;;;;;;;;;;;;5065297;28;20027;-76
2022/12/05 11:27:02;;;;;;;;;;;;;;;;;;5066054;28;19916;-76
2022/12/05 11:29:28;;;;;;;;;;;;;;;;;;5059429;28;20043;-76
2022/12/05 11:31:54;;;;;;;;;;;;;;;;;;5061113;28;20423;-75
2022/12/05 11:34:20;;;;;;;;;;;;;;;;;;5054507;28;20275;-74
2022/12/05 11:36:46;;;;;;;;;;;;;;;;;;5065324;28;19917;-74
2022/12/05 11:39:12;;;;;;;;;;;;;;;;;;5081149;28;19904;-73
2022/12/05 11:41:39;;;;;;;;;;;;;;;;;;5066382;28;19991;-74
2022/12/05 11:44:05;;;;;;;;;;;;;;;;;;5068506;28;19909;-74
2022/12/05 11:46:32;;;;;;;;;;;;;;;;;;5064573;28;19927;-74
2022/12/05 11:48:58;;;;;;;;;;;;;;;;;;5067860;28;19908;-74
2022/12/05 11:51:24;;;;;;;;;;;;;;;;;;5059874;28;20415;-73
2022/12/05 11:53:50;;;;;;;;;;;;;;;;;;5062869;28;20327;-74
2022/12/05 11:56:16;;;;;;;;;;;;;;;;;;5059119;28;19912;-74
2022/12/05 11:58:41;;;;;;;;;;;;;;;;;;5061230;28;19912;-73
2022/12/05 12:01:10;;;;;;;;;;;;;;;;;;5068477;28;20474;-74
2022/12/05 12:03:36;;;;;;;;;;;;;;;;;;5075544;28;20406;-74
2022/12/05 12:06:02;;;;;;;;;;;;;;;;;;5064912;28;19905;-73
2022/12/05 12:08:28;;;;;;;;;;;;;;;;;;5064930;28;20499;-74
2022/12/05 12:10:54;;;;;;;;;;;;;;;;;;5065293;28;19914;-74
2022/12/05 12:13:19;;;;;;;;;;;;;;;;;;5067906;28;19904;-74
2022/12/05 12:15:45;;;;;;;;;;;;;;;;;;5055431;28;19917;-73
2022/12/05 12:18:18;;;;;;;;;;;;;;;;;;5059656;28;19908;-74
2022/12/05 12:20:44;;;;;;;;;;;;;;;;;;5064925;28;20003;-74
2022/12/05 12:23:10;;;;;;;;;;;;;;;;;;5066202;28;20018;-74
2022/12/05 12:25:36;;;;;;;;;;;;;;;;;;5062912;28;19912;-73
2022/12/05 12:28:04;;;;;;;;;;;;;;;;;;5059147;28;20308;-74
2022/12/05 12:30:30;;;;;;;;;;;;;;;;;;5058395;28;19908;-75
2022/12/05 12:32:55;;;;;;;;;;;;;;;;;;5065852;28;19916;-74
2022/12/05 12:35:22;;;;;;;;;;;;;;;;;;5061435;28;19931;-74
2022/12/05 12:37:51;;;;;;;;;;;;;;;;;;5062525;28;19910;-74
2022/12/05 12:40:17;;;;;;;;;;;;;;;;;;5064353;28;20015;-75
2022/12/05 12:42:43;;;;;;;;;;;;;;;;;;5061968;28;20035;-73
2022/12/05 12:45:08;;;;;;;;;;;;;;;;;;5056919;28;19905;-74
2022/12/05 12:47:36;;;;;;;;;;;;;;;;;;5060576;28;19908;-74
2022/12/05 12:50:02;;;;;;;;;;;;;;;;;;5065941;28;19923;-74
2022/12/05 12:52:28;;;;;;;;;;;;;;;;;;5062296;28;20082;-74
2022/12/05 12:54:54;;;;;;;;;;;;;;;;;;5067371;28;19915;-75
2022/12/05 12:57:21;;;;;;;;;;;;;;;;;;5070271;28;19908;-74
2022/12/05 12:59:47;;;;;;;;;;;;;;;;;;5064932;28;19904;-74
2022/12/05 13:02:12;;;;;;;;;;;;;;;;;;5068530;28;19910;-74
2022/12/05 13:04:39;;;;;;;;;;;;;;;;;;5067492;28;19920;-75
2022/12/05 13:07:05;;;;;;;;;;;;;;;;;;5069153;28;19969;-74
2022/12/05 13:09:31;;;;;;;;;;;;;;;;;;5071283;28;19904;-74
2022/12/05 13:11:56;;;;;;;;;;;;;;;;;;5070472;28;19918;-74
2022/12/05 13:14:24;;;;;;;;;;;;;;;;;;5070585;28;19995;-75
2022/12/05 13:16:50;;;;;;;;;;;;;;;;;;5067128;28;19918;-74
2022/12/05 13:19:15;;;;;;;;;;;;;;;;;;5062622;28;19908;-74
2022/12/05 13:21:41;;;;;;;;;;;;;;;;;;5068434;28;19939;-74
2022/12/05 13:24:07;;;;;;;;;;;;;;;;;;5069761;28;19912;-75
2022/12/05 13:26:34;;;;;;;;;;;;;;;;;;5070516;28;19912;-75
2022/12/05 13:28:59;;;;;;;;;;;;;;;;;;5064596;28;19928;-74
2022/12/05 13:31:25;;;;;;;;;;;;;;;;;;5065245;28;19909;-75
2022/12/05 13:33:52;;;;;;;;;;;;;;;;;;5068162;28;19916;-75
2022/12/05 13:44:32;;;;;;;;;;;;;;;;;;5066966;28;19958;-76
2022/12/05 13:46:58;;;;;;;;;;;;;;;;;;5056510;28;19908;-75
2022/12/05 13:49:24;;;;;;;;;;;;;;;;;;5057684;28;19912;-76
2022/12/05 13:51:49;;;;;;;;;;;;;;;;;;5067456;28;19919;-78
2022/12/05 13:54:15;;;;;;;;;;;;;;;;;;5066805;28;19913;-79
2022/12/05 13:56:41;;;;;;;;;;;;;;;;;;5067492;28;19923;-77
2022/12/05 13:59:07;;;;;;;;;;;;;;;;;;5066273;28;19931;-76
2022/12/05 14:01:34;;;;;;;;;;;;;;;;;;5064760;28;19904;-77
2022/12/05 14:04:00;;;;;;;;;;;;;;;;;;5069550;28;20035;-77
2022/12/05 14:06:27;;;;;;;;;;;;;;;;;;5061913;28;19905;-76
2022/12/05 14:08:53;;;;;;;;;;;;;;;;;;5067832;28;19987;-76
2022/12/05 14:11:18;;;;;;;;;;;;;;;;;;5068028;28;20097;-75
2022/12/05 14:13:44;;;;;;;;;;;;;;;;;;5064446;28;20406;-76
2022/12/05 14:16:10;;;;;;;;;;;;;;;;;;5069133;28;19905;-76
2022/12/05 14:18:36;;;;;;;;;;;;;;;;;;5061448;28;19908;-75
2022/12/05 14:21:02;;;;;;;;;;;;;;;;;;5067572;28;19908;-74
2022/12/05 14:23:28;;;;;;;;;;;;;;;;;;5066919;28;19916;-77
2022/12/05 14:25:54;;;;;;;;;;;;;;;;;;5063417;28;19912;-75
2022/12/05 14:28:20;;;;;;;;;;;;;;;;;;5063774;28;19916;-75
2022/12/05 14:30:46;;;;;;;;;;;;;;;;;;5061373;28;19961;-75
2022/12/05 14:33:12;;;;;;;;;;;;;;;;;;5060246;28;19995;-76
2022/12/05 14:35:38;;;;;;;;;;;;;;;;;;5062040;28;19915;-76
2022/12/05 14:38:04;;;;;;;;;;;;;;;;;;5062963;28;19905;-76
2022/12/05 14:40:30;;;;;;;;;;;;;;;;;;5061745;28;19957;-77
2022/12/05 14:42:55;;;;;;;;;;;;;;;;;;5065718;28;19908;-76
2022/12/05 14:45:21;;;;;;;;;;;;;;;;;;5067187;28;19954;-76
2022/12/05 14:47:47;;;;;;;;;;;;;;;;;;5066618;28;20000;-76
2022/12/05 14:50:13;;;;;;;;;;;;;;;;;;5061295;28;19917;-77
2022/12/05 14:52:40;;;;;;;;;;;;;;;;;;5065477;28;19916;-76
2022/12/05 14:55:05;;;;;;;;;;;;;;;;;;5059585;28;19919;-76
2022/12/05 14:57:32;;;;;;;;;;;;;;;;;;5064821;28;19905;-76
2022/12/05 14:59:57;;;;;;;;;;;;;;;;;;5064254;28;19908;-77
2022/12/05 15:02:23;;;;;;;;;;;;;;;;;;5055718;28;20303;-76
2022/12/05 15:04:49;;;;;;;;;;;;;;;;;;5063162;28;20302;-76
2022/12/05 15:07:15;;;;;;;;;;;;;;;;;;5061685;28;19916;-77
2022/12/05 15:09:41;;;;;;;;;;;;;;;;;;5060702;28;19905;-77
2022/12/05 15:12:07;;;;;;;;;;;;;;;;;;5063633;28;20003;-76
2022/12/05 15:14:33;;;;;;;;;;;;;;;;;;5057060;28;19909;-76
2022/12/05 15:16:58;;;;;;;;;;;;;;;;;;5067251;28;19978;-76
2022/12/05 15:19:26;;;;;;;;;;;;;;;;;;5066411;28;19908;-76
2022/12/05 15:21:52;;;;;;;;;;;;;;;;;;5063453;28;19993;-76
2022/12/05 15:24:18;;;;;;;;;;;;;;;;;;5067274;28;19985;-76
2022/12/05 15:26:45;;;;;;;;;;;;;;;;;;5067324;28;19915;-76
2022/12/05 15:29:10;;;;;;;;;;;;;;;;;;5066662;28;19927;-76
2022/12/05 15:31:36;;;;;;;;;;;;;;;;;;5063391;28;20299;-76
2022/12/05 15:34:02;;;;;;;;;;;;;;;;;;5065167;28;20406;-76
2022/12/05 15:36:28;;;;;;;;;;;;;;;;;;5065937;28;19995;-76
2022/12/05 15:38:54;;;;;;;;;;;;;;;;;;5060012;28;20094;-76
2022/12/05 15:41:20;;;;;;;;;;;;;;;;;;5048618;28;19916;-75
2022/12/05 15:43:46;;;;;;;;;;;;;;;;;;5045489;28;19916;-75
2022/12/05 15:46:12;;;;;;;;;;;;;;;;;;5060087;28;19912;-74
2022/12/05 15:48:38;;;;;;;;;;;;;;;;;;5066031;28;19914;-75
2022/12/05 15:51:04;;;;;;;;;;;;;;;;;;5061263;28;19920;-75
2022/12/05 15:53:29;;;;;;;;;;;;;;;;;;5060864;28;19908;-75
2022/12/05 15:55:56;;;;;;;;;;;;;;;;;;5066612;28;19912;-75
2022/12/05 15:58:21;;;;;;;;;;;;;;;;;;5055998;28;19915;-75
2022/12/05 16:00:47;;;;;;;;;;;;;;;;;;5066015;28;19904;-74
2022/12/05 16:03:13;;;;;;;;;;;;;;;;;;5072385;28;19932;-75
2022/12/05 16:05:39;;;;;;;;;;;;;;;;;;5055524;28;19912;-75
2022/12/05 16:08:05;;;;;;;;;;;;;;;;;;5065781;28;19913;-77
2022/12/05 16:10:31;;;;;;;;;;;;;;;;;;5057697;28;19916;-78
2022/12/05 16:12:57;;;;;;;;;;;;;;;;;;5051700;28;20291;-79
2022/12/05 16:15:23;;;;;;;;;;;;;;;;;;5065180;28;19969;-79
2022/12/05 16:17:49;;;;;;;;;;;;;;;;;;5060651;28;19912;-77
2022/12/05 16:20:15;;;;;;;;;;;;;;;;;;5068711;28;19927;-80
2022/12/05 16:22:43;;;;;;;;;;;;;;;;;;5062147;28;20328;-81
2022/12/05 16:25:09;;;;;;;;;;;;;;;;;;5070187;28;19908;-76
2022/12/05 16:27:35;;;;;;;;;;;;;;;;;;5064074;28;19908;-78
2022/12/05 16:30:01;;;;;;;;;;;;;;;;;;5065754;28;19909;-77
2022/12/05 16:32:27;;;;;;;;;;;;;;;;;;5070258;28;19915;-79
2022/12/05 16:34:52;;;;;;;;;;;;;;;;;;5070886;28;20003;-81
2022/12/05 16:37:18;;;;;;;;;;;;;;;;;;5067755;28;19909;-81
2022/12/05 16:39:45;;;;;;;;;;;;;;;;;;5064412;28;19951;-80
2022/12/05 16:42:12;;;;;;;;;;;;;;;;;;5067640;28;19912;-79
2022/12/05 16:44:38;;;;;;;;;;;;;;;;;;5062090;28;19927;-78
2022/12/05 16:47:04;;;;;;;;;;;;;;;;;;5070571;28;19908;-80
2022/12/05 16:49:30;;;;;;;;;;;;;;;;;;5064424;28;19919;-77
2022/12/05 16:51:56;;;;;;;;;;;;;;;;;;5068924;28;19912;-78
2022/12/05 16:54:22;;;;;;;;;;;;;;;;;;5063604;28;20430;-77
2022/12/05 16:56:48;;;;;;;;;;;;;;;;;;5066736;28;20329;-77